Time;durP1;ratioP1;P1;durP2;ratioP2;P2;SDS_P1;SDS_P2;PMS_P1;PMS_P2;Temp;Humidity;BMP_temperature;BMP_pressure;BME280_temperature;BME280_humidity;BME280_pressure;Samples;Min_cycle;Max_cycle;Signal;HPM_P1;HPM_P2
2022/12/12 00:06:03;;;;;;;49.40;23.67;;;;;;;-2.77;100.00;97766.66;4394226;79;21038;-91
2022/12/12 00:12:03;;;;;;;42.73;22.37;;;;;;;-2.76;100.00;97763.44;4395985;79;20951;-90
2022/12/12 00:18:06;;;;;;;46.57;20.90;;;;;;;-2.76;100.00;97762.09;4396134;79;21045;-90
2022/12/12 00:24:08;;;;;;;44.57;20.40;;;;;;;-2.75;100.00;97751.61;4334723;81;21112;-90
2022/12/12 00:30:11;;;;;;;50.13;20.77;;;;;;;-2.76;100.00;97758.08;4330304;81;21003;-89
2022/12/12 00:36:13;;;;;;;39.47;19.73;;;;;;;-2.78;100.00;97757.60;4327131;81;21003;-89
2022/12/12 00:42:14;;;;;;;41.10;19.50;;;;;;;-2.80;100.00;97759.84;4341293;81;21531;-90
2022/12/12 00:48:16;;;;;;;43.97;19.87;;;;;;;-2.84;100.00;97765.03;4391934;79;21030;-90
2022/12/12 00:54:20;;;;;;;40.13;19.13;;;;;;;-2.87;100.00;97767.01;4381757;79;21058;-90
2022/12/12 01:00:26;;;;;;;37.33;18.10;;;;;;;-2.88;100.00;97756.61;4308661;81;21034;-89
2022/12/12 01:06:27;;;;;;;38.47;17.93;;;;;;;-2.87;100.00;97747.47;4505682;77;21030;-90
2022/12/12 01:12:38;;;;;;;44.20;20.13;;;;;;;-2.89;100.00;97744.31;4499194;77;21296;-90
2022/12/12 01:18:40;;;;;;;37.13;18.33;;;;;;;-2.92;100.00;97744.95;4506411;77;21810;-91
2022/12/12 01:24:42;;;;;;;40.43;18.77;;;;;;;-2.92;100.00;97738.25;4505872;77;21512;-89
2022/12/12 01:30:45;;;;;;;44.53;19.47;;;;;;;-2.92;100.00;97736.91;4499770;77;21023;-91
2022/12/12 01:36:46;;;;;;;43.43;18.37;;;;;;;-2.91;100.00;97738.51;4505608;77;21606;-90
2022/12/12 01:42:50;;;;;;;42.93;20.33;;;;;;;-2.93;100.00;97738.03;4508692;77;21043;-90
2022/12/12 01:49:12;;;;;;;42.87;18.97;;;;;;;-2.96;100.00;97730.06;4511395;77;21838;-91
2022/12/12 01:55:21;;;;;;;39.53;18.97;;;;;;;-3.00;100.00;97733.70;4513189;77;21010;-92
2022/12/12 02:01:23;;;;;;;38.20;18.67;;;;;;;-3.00;100.00;97736.38;4526078;77;21580;-91
2022/12/12 02:07:26;;;;;;;40.57;16.50;;;;;;;-3.00;100.00;97732.36;4519699;77;21054;-90
2022/12/12 02:13:31;;;;;;;45.30;19.37;;;;;;;-3.03;100.00;97731.11;4523925;77;21050;-91
2022/12/12 02:19:49;;;;;;;33.37;17.10;;;;;;;-3.05;100.00;97731.97;4522889;77;21534;-91
2022/12/12 02:26:14;;;;;;;;;;;;;;;-3.05;100.00;97738.66;4519970;76;21046;-92
2022/12/12 02:32:41;;;;;;;27.73;12.13;;;;;;;-3.08;100.00;97733.15;4495554;77;20414;-91
2022/12/12 02:39:10;;;;;;;41.13;18.00;;;;;;;-3.11;100.00;97731.11;4524899;77;21480;-91
2022/12/12 02:45:34;;;;;;;40.10;17.63;;;;;;;-3.10;100.00;97734.80;4521296;77;21005;-91
2022/12/12 02:51:38;;;;;;;36.83;16.90;;;;;;;-3.13;100.00;97732.00;4518713;77;21458;-92
2022/12/12 02:57:40;;;;;;;36.40;16.93;;;;;;;-3.14;100.00;97731.74;4505945;77;21570;-91
2022/12/12 03:10:41;;;;;;;37.57;17.40;;;;;;;-3.16;100.00;97719.25;4509516;77;21421;-91
2022/12/12 03:17:03;;;;;;;;;;;;;;;-3.17;100.00;97725.14;4518744;77;21031;-91
2022/12/12 03:23:12;;;;;;;36.20;17.23;;;;;;;-3.17;100.00;97718.45;4514074;77;20708;-90
2022/12/12 03:29:19;;;;;;;33.23;15.90;;;;;;;-3.20;100.00;97719.09;4516346;77;21010;-90
2022/12/12 03:35:28;;;;;;;33.63;15.70;;;;;;;-3.22;100.00;97715.93;4527404;77;21667;-90
2022/12/12 03:41:38;;;;;;;33.47;14.93;;;;;;;-3.25;100.00;97716.02;4510944;77;20953;-90
2022/12/12 03:47:48;;;;;;;35.87;14.37;;;;;;;-3.25;100.00;97717.36;4520559;77;21032;-89
2022/12/12 03:54:00;;;;;;;29.43;14.50;;;;;;;-3.24;100.00;97720.27;4519568;77;20995;-90
2022/12/12 04:00:07;;;;;;;30.37;14.13;;;;;;;-3.25;100.00;97721.37;4523574;76;20986;-89
2022/12/12 04:06:32;;;;;;;30.77;15.00;;;;;;;-3.30;100.00;97722.87;4499144;77;21030;-89
2022/12/12 04:13:19;;;;;;;33.60;15.47;;;;;;;-3.28;100.00;97714.52;4515022;77;21108;-89
2022/12/12 04:33:02;;;;;;;29.10;14.40;;;;;;;-3.28;100.00;97709.17;4398477;79;21549;-88
2022/12/12 04:39:06;;;;;;;30.80;14.53;;;;;;;-3.28;100.00;97705.16;4371658;79;21042;-90
2022/12/12 04:45:13;;;;;;;30.57;15.43;;;;;;;-3.30;100.00;97718.06;4407792;79;20977;-89
2022/12/12 04:51:19;;;;;;;34.77;16.27;;;;;;;-3.31;100.00;97723.98;4346788;79;22103;-88
2022/12/12 04:57:28;;;;;;;40.67;17.13;;;;;;;-3.30;100.00;97718.06;4208687;83;21001;-88
2022/12/12 05:03:51;;;;;;;36.73;15.43;;;;;;;-3.31;100.00;97722.64;4315611;81;21002;-90
2022/12/12 05:09:52;;;;;;;39.20;18.87;;;;;;;-3.31;100.00;97723.98;4308047;81;21379;-89
2022/12/12 05:15:57;;;;;;;38.03;17.10;;;;;;;-3.28;100.00;97730.58;4306260;81;21000;-89
2022/12/12 05:21:58;;;;;;;37.67;18.07;;;;;;;-3.27;100.00;97726.80;4300335;81;21041;-88
2022/12/12 05:27:59;;;;;;;38.80;18.70;;;;;;;-3.26;100.00;97726.47;4307827;81;21043;-88
2022/12/12 05:34:02;;;;;;;40.70;19.80;;;;;;;-3.26;100.00;97726.47;4296205;81;21024;-87
2022/12/12 05:40:07;;;;;;;31.10;16.23;;;;;;;-3.24;100.00;97728.30;4306037;79;21062;-89
2022/12/12 05:46:09;;;;;;;39.58;18.92;;;;;;;-3.24;100.00;97722.94;4304416;81;21001;-88
2022/12/12 05:52:10;;;;;;;36.10;16.63;;;;;;;-3.25;100.00;97730.74;4336947;79;21098;-88
2022/12/12 05:58:13;;;;;;;45.33;18.17;;;;;;;-3.22;100.00;97731.98;4361414;79;21011;-88
2022/12/12 06:04:14;;;;;;;38.80;18.70;;;;;;;-3.21;100.00;97735.69;4366345;79;21054;-88
2022/12/12 06:10:16;;;;;;;37.33;17.30;;;;;;;-3.19;100.00;97746.08;4366617;79;21018;-88
2022/12/12 06:16:18;;;;;;;44.17;21.57;;;;;;;-3.18;100.00;97752.23;4375742;79;21624;-88
2022/12/12 06:22:20;;;;;;;52.30;23.47;;;;;;;-3.16;100.00;97754.05;4377981;79;20991;-87
2022/12/12 06:28:22;;;;;;;50.90;24.37;;;;;;;-3.15;100.00;97750.25;4366511;79;21002;-88
2022/12/12 06:34:24;;;;;;;61.80;28.83;;;;;;;-3.16;100.00;97758.83;4357736;79;21034;-89
2022/12/12 06:40:25;;;;;;;53.33;26.43;;;;;;;-3.17;100.00;97764.50;4371760;79;21030;-89
2022/12/12 06:46:35;;;;;;;54.03;26.43;;;;;;;-3.14;100.00;97767.34;4362602;79;21054;-88
2022/12/12 06:52:44;;;;;;;52.30;24.83;;;;;;;-3.14;100.00;97765.20;4377252;79;21157;-88
2022/12/12 06:58:45;;;;;;;52.63;24.70;;;;;;;-3.10;100.00;97772.28;4359947;80;20983;-88
2022/12/12 07:04:47;;;;;;;53.47;25.43;;;;;;;-3.09;100.00;97776.55;4371922;80;21013;-89
2022/12/12 07:10:48;;;;;;;57.97;26.70;;;;;;;-3.05;100.00;97775.37;4384287;80;21014;-89
2022/12/12 07:16:50;;;;;;;55.27;25.63;;;;;;;-3.01;100.00;97778.98;4374764;79;20951;-90
2022/12/12 07:22:52;;;;;;;53.47;24.13;;;;;;;-2.99;100.00;97782.91;4365335;80;20946;-89
2022/12/12 07:28:53;;;;;;;49.23;23.53;;;;;;;-2.99;100.00;97784.25;4364861;79;21510;-89
2022/12/12 07:34:57;;;;;;;51.23;23.97;;;;;;;-2.98;100.00;97781.83;4371187;80;21016;-88
2022/12/12 07:41:11;;;;;;;47.60;23.27;;;;;;;-2.96;100.00;97781.50;4383649;80;21823;-89
2022/12/12 07:47:14;;;;;;;46.50;22.30;;;;;;;-2.95;100.00;97781.73;4378724;79;21014;-89
2022/12/12 07:53:18;;;;;;;43.17;21.73;;;;;;;-2.91;100.00;97787.47;4367207;79;21022;-88
2022/12/12 07:59:22;;;;;;;49.53;22.20;;;;;;;-2.88;100.00;97789.52;4367650;79;21003;-89
2022/12/12 08:05:24;;;;;;;51.77;23.77;;;;;;;-2.86;100.00;97787.31;4363420;79;21042;-88
2022/12/12 08:11:26;;;;;;;47.17;19.30;;;;;;;-2.82;100.00;97784.80;4378023;79;21073;-89
2022/12/12 08:17:27;;;;;;;47.00;22.27;;;;;;;-2.81;100.00;97793.05;4366031;79;21030;-89
2022/12/12 08:23:29;;;;;;;50.03;23.13;;;;;;;-2.86;100.00;97796.69;4373697;79;20984;-89
2022/12/12 08:29:30;;;;;;;45.87;22.07;;;;;;;-2.77;100.00;97802.05;4367038;79;21204;-87
2022/12/12 08:35:32;;;;;;;45.80;22.07;;;;;;;-2.76;100.00;97805.75;4370707;79;20983;-88
2022/12/12 08:41:38;;;;;;;49.90;22.30;;;;;;;-2.74;100.00;97808.88;4367633;79;21595;-86
2022/12/12 08:47:41;;;;;;;55.13;24.87;;;;;;;-2.68;100.00;97810.86;4347443;79;22112;-87
2022/12/12 08:53:46;;;;;;;48.80;23.07;;;;;;;-2.68;100.00;97800.94;4363420;79;21079;-87
2022/12/12 08:59:48;;;;;;;44.10;22.17;;;;;;;-2.60;100.00;97812.73;4364895;80;21086;-87
2022/12/12 09:05:50;;;;;;;50.90;23.67;;;;;;;-2.51;100.00;97814.30;4365312;80;21480;-88
2022/12/12 09:11:52;;;;;;;53.20;24.93;;;;;;;-2.47;100.00;97812.55;4342562;80;21034;-87
2022/12/12 09:17:55;;;;;;;46.43;22.33;;;;;;;-2.37;100.00;97808.73;4359092;80;21018;-89
2022/12/12 09:23:57;;;;;;;47.00;22.73;;;;;;;-2.32;100.00;97819.30;4368781;80;22319;-88
2022/12/12 09:30:10;;;;;;;48.93;22.53;;;;;;;-2.28;100.00;97818.88;4367446;80;21610;-88
2022/12/12 09:36:12;;;;;;;51.93;24.60;;;;;;;-2.20;100.00;97821.55;4364692;79;20980;-89
2022/12/12 09:42:30;;;;;;;49.47;23.23;;;;;;;-2.23;100.00;97808.78;4381511;80;21076;-89
2022/12/12 09:48:42;;;;;;;43.63;23.67;;;;;;;-2.18;100.00;97813.18;4366654;80;20989;-88
2022/12/12 09:54:45;;;;;;;46.50;24.10;;;;;;;-2.08;100.00;97814.95;4322252;80;21957;-88
2022/12/12 10:01:01;;;;;;;50.47;23.60;;;;;;;-2.00;100.00;97814.67;4296424;81;21091;-89
2022/12/12 10:07:33;;;;;;;46.42;22.35;;;;;;;-1.96;100.00;97811.03;4300390;81;21524;-89
2022/12/12 10:13:38;;;;;;;41.30;21.20;;;;;;;-1.87;100.00;97819.05;4188207;83;21669;-89
2022/12/12 10:19:58;;;;;;;48.80;23.47;;;;;;;-1.83;100.00;97811.38;4168647;82;21008;-89
2022/12/12 10:26:22;;;;;;;45.78;22.55;;;;;;;-1.73;100.00;97814.25;4172055;83;21031;-90
2022/12/12 10:32:55;;;;;;;45.05;22.93;;;;;;;-1.63;100.00;97809.87;4166178;83;21047;-88
2022/12/12 10:39:28;;;;;;;46.03;21.40;;;;;;;-1.54;100.00;97812.48;4172331;83;21054;-88
2022/12/12 10:45:53;;;;;;;45.40;22.20;;;;;;;-1.51;100.00;97811.84;4112764;83;21099;-90
2022/12/12 10:51:52;;;;;;;48.17;24.07;;;;;;;-1.50;100.00;97811.52;4115569;83;21100;-90
2022/12/12 10:58:03;;;;;;;48.27;24.93;;;;;;;-1.46;100.00;97813.00;4373288;80;21027;-90
2022/12/12 11:04:05;;;;;;;46.45;24.20;;;;;;;-1.37;100.00;97809.15;4373877;80;20956;-89
2022/12/12 11:10:24;;;;;;;49.20;24.32;;;;;;;-1.35;100.00;97810.16;4386697;80;21031;-89
2022/12/12 11:16:39;;;;;;;47.20;23.77;;;;;;;-1.30;100.00;97814.01;4379615;80;20995;-88
2022/12/12 11:22:42;;;;;;;44.60;22.90;;;;;;;-1.29;100.00;97805.63;4365751;80;21039;-87
2022/12/12 11:28:55;;;;;;;39.90;22.67;;;;;;;-1.15;100.00;97810.19;4327839;77;252242;-87
2022/12/12 11:35:00;;;;;;;41.83;19.50;;;;;;;-1.19;100.00;97809.25;4334472;81;21007;-88
2022/12/12 11:41:07;;;;;;;43.03;19.97;;;;;;;-1.23;100.00;97810.23;4310826;81;20982;-87
2022/12/12 11:47:27;;;;;;;;;;;;;;;-1.22;100.00;97806.45;4332539;81;20972;-89
2022/12/12 11:53:31;;;;;;;42.53;20.05;;;;;;;-1.29;100.00;97800.80;4309637;80;20117;-87
2022/12/12 11:59:47;;;;;;;41.70;19.23;;;;;;;-1.37;100.00;97808.35;4299866;80;21065;-87
2022/12/12 12:05:59;;;;;;;39.00;18.40;;;;;;;-1.40;100.00;97808.46;4291477;81;21011;-88
2022/12/12 12:12:16;;;;;;;34.33;17.30;;;;;;;-1.34;100.00;97812.52;4294717;80;21061;-89
2022/12/12 12:18:38;;;;;;;35.83;18.80;;;;;;;-1.35;100.00;97814.19;4277543;81;21545;-87
2022/12/12 12:25:30;;;;;;;41.33;19.85;;;;;;;-1.36;100.00;97816.08;4299704;80;21021;-88
2022/12/12 12:32:12;;;;;;;37.93;18.90;;;;;;;-1.40;100.00;97811.69;4317548;80;20963;-87
2022/12/12 12:38:40;;;;;;;43.87;19.03;;;;;;;-1.38;100.00;97812.16;4277739;81;21017;-88
2022/12/12 12:44:56;;;;;;;38.48;18.10;;;;;;;-1.46;100.00;97804.95;4273748;81;20963;-88
2022/12/12 12:51:30;;;;;;;35.20;17.50;;;;;;;-1.49;100.00;97810.97;4290407;81;21601;-89
2022/12/12 12:57:42;;;;;;;26.62;14.85;;;;;;;-1.54;100.00;97804.44;4310518;81;21414;-89
2022/12/12 13:04:47;;;;;;;;;;;;;;;;;;;;;
2022/12/12 13:11:14;;;;;;;32.65;16.57;;;;;;;-1.58;100.00;97822.31;4333252;79;20983;-88
2022/12/12 13:17:42;;;;;;;33.42;17.12;;;;;;;-1.63;100.00;97830.76;4305715;81;21035;-87
2022/12/12 13:24:09;;;;;;;35.20;16.93;;;;;;;-1.63;100.00;97830.76;4308428;81;21023;-89
2022/12/12 13:30:46;;;;;;;35.28;17.40;;;;;;;-1.70;100.00;97839.89;4287440;81;21043;-88
2022/12/12 13:36:50;;;;;;;34.20;17.15;;;;;;;-1.72;100.00;97831.36;4299451;81;21045;-88
2022/12/12 13:42:57;;;;;;;32.95;16.35;;;;;;;-1.76;100.00;97840.39;4318721;81;21023;-89
2022/12/12 13:49:25;;;;;;;33.55;17.05;;;;;;;-1.75;100.00;97840.61;4313703;81;21157;-91
2022/12/12 13:55:30;;;;;;;35.90;16.77;;;;;;;-1.74;100.00;97849.67;4311832;81;21056;-92
2022/12/12 14:01:39;;;;;;;35.33;17.40;;;;;;;-1.77;100.00;97856.26;4291176;80;21137;-91
2022/12/12 14:07:50;;;;;;;36.50;17.50;;;;;;;-1.81;100.00;97867.39;4293313;81;21051;-91
2022/12/12 14:14:03;;;;;;;36.77;17.77;;;;;;;-1.86;100.00;97864.33;4290031;81;21504;-90
2022/12/12 14:20:06;;;;;;;34.53;17.07;;;;;;;-1.90;100.00;97882.19;4295041;81;21020;-91
2022/12/12 14:26:31;;;;;;;39.23;18.17;;;;;;;-1.96;100.00;97884.02;4299592;80;21050;-89
2022/12/12 14:32:41;;;;;;;39.87;18.97;;;;;;;-2.02;100.00;97879.94;4134706;84;21070;-91
2022/12/12 14:39:22;;;;;;;36.40;19.10;;;;;;;-2.07;100.00;97884.89;4296333;81;20982;-91
2022/12/12 14:45:35;;;;;;;42.57;19.23;;;;;;;-2.10;100.00;97887.45;4291318;81;21068;-92
2022/12/12 14:51:36;;;;;;;54.80;23.07;;;;;;;-2.15;100.00;97889.75;4293831;81;21539;-90
2022/12/12 14:57:42;;;;;;;50.03;21.97;;;;;;;-2.15;100.00;97898.33;4291002;80;21003;-90
2022/12/12 15:03:47;;;;;;;46.70;20.30;;;;;;;-2.16;100.00;97899.45;4263183;81;21640;-91
2022/12/12 15:09:49;;;;;;;38.30;17.15;;;;;;;-2.22;100.00;97898.81;4291275;81;21100;-91
2022/12/12 15:15:51;;;;;;;41.20;20.80;;;;;;;-2.25;100.00;97905.36;4297521;81;21618;-91
2022/12/12 15:21:53;;;;;;;44.57;21.23;;;;;;;-2.27;100.00;97912.95;4301505;81;21022;-90
2022/12/12 15:27:56;;;;;;;42.37;17.80;;;;;;;-2.29;100.00;97918.63;4301099;80;21018;-90
2022/12/12 15:34:03;;;;;;;40.17;20.03;;;;;;;-2.29;100.00;97919.17;4296723;81;21035;-90
2022/12/12 15:40:16;;;;;;;45.53;21.83;;;;;;;-2.29;100.00;97927.22;4294686;81;21081;-90
2022/12/12 15:46:19;;;;;;;45.63;21.67;;;;;;;-2.31;100.00;97930.75;4288147;81;21675;-87
2022/12/12 15:52:29;;;;;;;44.43;20.53;;;;;;;-2.33;100.00;97927.05;4271016;81;21051;-88
2022/12/12 15:58:45;;;;;;;43.50;21.30;;;;;;;-2.31;100.00;97934.78;4300001;81;21501;-90
2022/12/12 16:05:05;;;;;;;48.33;22.60;;;;;;;-2.30;100.00;97936.37;4224352;82;21330;-89
2022/12/12 16:11:30;;;;;;;43.23;22.00;;;;;;;-2.29;100.00;97943.30;4306303;81;21064;-89
2022/12/12 16:17:32;;;;;;;48.07;22.33;;;;;;;-2.29;100.00;97954.82;4304021;80;21087;-89
2022/12/12 16:23:40;;;;;;;48.33;22.70;;;;;;;-2.30;100.00;97962.61;4297342;80;21023;-90
2022/12/12 16:29:44;;;;;;;50.20;23.50;;;;;;;-2.31;100.00;97958.91;4300176;81;21770;-89
2022/12/12 16:35:47;;;;;;;51.77;23.97;;;;;;;-2.30;100.00;97957.24;4304562;81;21029;-89
2022/12/12 16:41:50;;;;;;;45.40;22.67;;;;;;;-2.28;100.00;97963.09;4306281;80;21046;-89
2022/12/12 16:47:52;;;;;;;48.17;23.67;;;;;;;-2.26;100.00;97966.79;4301503;80;21633;-88
2022/12/12 16:53:54;;;;;;;49.87;23.83;;;;;;;-2.25;100.00;97976.40;4278468;80;21090;-88
2022/12/12 16:59:57;;;;;;;54.30;26.23;;;;;;;-2.22;100.00;97982.47;4257310;82;21053;-87
2022/12/12 17:05:59;;;;;;;52.93;25.43;;;;;;;-2.23;100.00;97983.04;4265300;82;22013;-88
2022/12/12 17:12:07;;;;;;;45.50;23.30;;;;;;;-2.22;100.00;97995.87;4263413;82;21555;-88
2022/12/12 17:18:14;;;;;;;46.90;22.53;;;;;;;-2.21;100.00;98005.51;4264721;82;21041;-88
2022/12/12 17:24:15;;;;;;;52.17;23.27;;;;;;;-2.23;100.00;98010.39;4262603;80;21040;-88
2022/12/12 17:30:20;;;;;;;52.63;24.27;;;;;;;-2.22;100.00;98011.41;4267829;82;21680;-88
2022/12/12 17:36:22;;;;;;;52.50;25.80;;;;;;;-2.22;100.00;98010.08;4255041;82;20971;-87
2022/12/12 17:42:23;;;;;;;61.83;26.40;;;;;;;-2.21;100.00;98019.68;4268798;82;21069;-87
2022/12/12 17:48:30;;;;;;;52.23;24.20;;;;;;;-2.20;100.00;98018.59;4139444;82;10000246;-87
2022/12/12 17:54:32;;;;;;;58.03;27.73;;;;;;;-2.19;100.00;98020.16;4253863;82;21037;-87
2022/12/12 18:00:33;;;;;;;53.47;25.90;;;;;;;-2.20;100.00;98027.19;4235831;81;20971;-87
2022/12/12 18:06:35;;;;;;;50.13;25.43;;;;;;;-2.19;100.00;98022.84;4246867;82;21002;-87
2022/12/12 18:12:37;;;;;;;54.13;25.73;;;;;;;-2.17;100.00;98030.03;4246011;82;21637;-87
2022/12/12 18:18:39;;;;;;;55.97;26.10;;;;;;;-2.18;100.00;98036.51;4239921;82;20998;-87
2022/12/12 18:24:40;;;;;;;55.10;26.37;;;;;;;-2.16;100.00;98042.32;4245038;82;21105;-87
2022/12/12 18:30:42;;;;;;;61.43;28.33;;;;;;;-2.15;100.00;98040.44;4233256;82;21002;-87
2022/12/12 18:36:43;;;;;;;63.03;29.53;;;;;;;-2.14;100.00;98056.21;4233662;82;21061;-87
2022/12/12 18:42:45;;;;;;;53.03;27.13;;;;;;;-2.10;100.00;98063.08;4239245;82;20974;-87
2022/12/12 18:48:47;;;;;;;61.27;30.90;;;;;;;-2.08;100.00;98076.94;4239533;82;20948;-87
2022/12/12 18:54:50;;;;;;;67.47;31.97;;;;;;;-2.07;100.00;98078.54;4243952;82;21053;-87
2022/12/12 19:00:52;;;;;;;70.93;33.20;;;;;;;-2.05;100.00;98083.05;4277417;82;20979;-87
2022/12/12 19:06:54;;;;;;;64.57;29.50;;;;;;;-2.03;100.00;98081.61;4264102;82;21531;-87
2022/12/12 19:12:55;;;;;;;63.27;31.70;;;;;;;-2.01;100.00;98092.83;4271253;80;21053;-87
2022/12/12 19:19:03;;;;;;;72.27;33.07;;;;;;;-1.99;100.00;98098.64;4260622;82;21053;-87
2022/12/12 19:25:06;;;;;;;64.37;30.87;;;;;;;-1.97;100.00;98112.53;4272801;82;21010;-88
2022/12/12 19:31:14;;;;;;;62.97;28.93;;;;;;;-1.95;100.00;98117.04;4260361;82;21017;-87
2022/12/12 19:37:21;;;;;;;61.77;27.63;;;;;;;-1.92;100.00;98130.36;4263249;82;21080;-88
2022/12/12 19:43:23;;;;;;;63.77;29.80;;;;;;;-1.89;100.00;98132.41;4272051;82;20996;-87
2022/12/12 19:49:24;;;;;;;61.40;29.07;;;;;;;-1.87;100.00;98137.72;4268054;82;21084;-88
2022/12/12 19:55:25;;;;;;;56.30;27.33;;;;;;;-1.86;100.00;98147.33;4246175;82;21141;-88
2022/12/12 20:01:30;;;;;;;54.37;26.03;;;;;;;-1.85;100.00;98146.22;4309711;81;20991;-87
2022/12/12 20:07:42;;;;;;;52.43;26.30;;;;;;;-1.82;100.00;98163.59;4295632;81;21038;-87
2022/12/12 20:13:54;;;;;;;50.10;24.13;;;;;;;-1.80;100.00;98161.37;4304304;81;21021;-87
2022/12/12 20:19:57;;;;;;;51.15;25.52;;;;;;;-1.79;100.00;98173.70;4305574;81;21062;-87
2022/12/12 20:26:07;;;;;;;52.83;25.97;;;;;;;-1.77;100.00;98173.61;4302058;81;21001;-88
2022/12/12 20:32:10;;;;;;;52.23;25.07;;;;;;;-1.75;100.00;98186.71;4303823;81;20993;-87
2022/12/12 20:38:11;;;;;;;51.07;24.83;;;;;;;-1.74;100.00;98185.63;4302054;81;21644;-88
2022/12/12 20:44:14;;;;;;;47.07;23.33;;;;;;;-1.74;100.00;98193.11;4313137;81;21056;-87
2022/12/12 20:50:16;;;;;;;47.77;19.87;;;;;;;-1.72;100.00;98196.81;4315641;81;20983;-87
2022/12/12 20:56:20;;;;;;;41.17;20.57;;;;;;;-1.73;100.00;98212.14;4188199;81;9999867;-87
2022/12/12 21:02:32;;;;;;;38.57;19.97;;;;;;;-1.72;100.00;98204.32;4362896;81;20981;-87
2022/12/12 21:08:34;;;;;;;42.80;20.37;;;;;;;-1.72;100.00;98223.64;4352251;81;21855;-88
2022/12/12 21:14:42;;;;;;;37.53;19.77;;;;;;;-1.71;100.00;98231.38;4345840;81;20980;-87
2022/12/12 21:20:44;;;;;;;36.07;19.53;;;;;;;-1.71;100.00;98245.38;4358946;80;21082;-87
2022/12/12 21:26:46;;;;;;;38.37;19.23;;;;;;;-1.70;100.00;98247.74;4347368;81;21053;-88
2022/12/12 21:32:47;;;;;;;38.13;18.77;;;;;;;-1.70;100.00;98252.30;4335198;81;21070;-87
2022/12/12 21:38:50;;;;;;;39.25;18.80;;;;;;;-1.70;100.00;98245.05;4336287;81;20991;-88
2022/12/12 21:44:59;;;;;;;33.53;16.97;;;;;;;-1.69;100.00;98264.61;4339451;81;21940;-87
2022/12/12 21:51:02;;;;;;;27.10;14.83;;;;;;;-1.72;100.00;98274.09;4339715;81;21007;-87
2022/12/12 21:57:03;;;;;;;26.87;13.67;;;;;;;-1.77;100.00;98272.88;4290251;81;21047;-87
2022/12/12 22:03:06;;;;;;;27.17;13.03;;;;;;;-1.78;100.00;98285.27;4278953;81;21882;-87
2022/12/12 22:09:11;;;;;;;34.27;15.57;;;;;;;-1.80;100.00;98280.22;4333076;81;21050;-87
2022/12/12 22:15:13;;;;;;;30.10;14.47;;;;;;;-1.82;100.00;98287.78;4339896;81;20994;-87
2022/12/12 22:21:44;;;;;;;29.93;14.90;;;;;;;-1.83;100.00;98294.26;4338067;81;20975;-88
2022/12/12 22:27:48;;;;;;;25.83;13.33;;;;;;;-1.84;100.00;98287.32;4323288;81;21036;-88
2022/12/12 22:33:59;;;;;;;18.80;10.50;;;;;;;-1.88;100.00;98297.08;4327754;81;20983;-88
2022/12/12 22:40:03;;;;;;;22.83;11.33;;;;;;;-1.94;100.00;98300.20;4315221;81;20956;-88
2022/12/12 22:46:06;;;;;;;23.57;12.30;;;;;;;-1.98;100.00;98315.34;4317935;81;21955;-87
2022/12/12 22:52:08;;;;;;;22.67;11.70;;;;;;;-2.00;100.00;98320.22;4340092;81;20960;-88
2022/12/12 22:58:09;;;;;;;26.93;12.00;;;;;;;-2.03;100.00;98325.67;4327203;80;20984;-88
2022/12/12 23:04:14;;;;;;;25.20;12.47;;;;;;;-2.07;100.00;98326.03;4327588;80;20975;-87
2022/12/12 23:10:16;;;;;;;22.07;9.07;;;;;;;-2.06;100.00;98341.03;4339193;81;21491;-87
2022/12/12 23:16:20;;;;;;;24.93;12.70;;;;;;;-2.08;100.00;98337.86;4325610;80;20936;-87
2022/12/12 23:22:23;;;;;;;25.70;12.33;;;;;;;-2.09;100.00;98346.22;4331525;81;21011;-86
2022/12/12 23:28:28;;;;;;;24.83;13.33;;;;;;;-2.14;100.00;98350.37;4328795;81;21005;-88
2022/12/12 23:34:30;;;;;;;25.47;12.53;;;;;;;-2.15;100.00;98354.16;4307777;81;20984;-87
2022/12/12 23:40:33;;;;;;;20.30;11.80;;;;;;;-2.17;100.00;98354.47;4309804;81;21507;-86
2022/12/12 23:46:35;;;;;;;26.37;12.67;;;;;;;-2.20;100.00;98363.13;4317418;81;20970;-86
2022/12/12 23:52:36;;;;;;;24.70;14.03;;;;;;;-2.20;100.00;98365.01;4322772;81;21550;-87
2022/12/12 23:58:37;;;;;;;28.33;13.60;;;;;;;-2.21;100.00;98366.89;4334911;80;21078;-87
